createdAt,value
2018-11-01T00:00:38.632Z,0.00
2018-11-01T00:01:38.651Z,0.00
2018-11-01T00:02:38.644Z,0.00
2018-11-01T00:03:38.654Z,0.00
2018-11-01T00:04:38.630Z,0.00
2018-11-01T00:05:38.630Z,0.00
2018-11-01T00:06:38.633Z,0.00
2018-11-01T00:07:38.651Z,0.00
2018-11-01T00:08:38.650Z,0.00
2018-11-01T00:09:38.634Z,0.00
2018-11-01T00:10:38.645Z,0.00
2018-11-01T00:11:38.647Z,0.00
2018-11-01T00:12:38.650Z,0.00
2018-11-01T00:13:38.652Z,0.00
2018-11-01T00:14:38.638Z,0.00
2018-11-01T00:15:38.627Z,0.00
2018-11-01T00:16:38.628Z,0.00
2018-11-01T00:17:38.633Z,0.00
2018-11-01T00:18:38.639Z,0.00
2018-11-01T00:19:38.655Z,0.00
2018-11-01T00:20:38.632Z,0.00
2018-11-01T00:21:38.633Z,0.00
2018-11-01T00:22:38.658Z,0.00
2018-11-01T00:23:38.641Z,0.00
2018-11-01T00:24:38.651Z,0.00
2018-11-01T00:25:38.648Z,0.00
2018-11-01T00:26:38.633Z,0.00
2018-11-01T00:27:38.649Z,0.00
2018-11-01T00:28:38.661Z,0.00
2018-11-01T00:29:38.644Z,0.00
2018-11-01T00:30:38.653Z,0.00
2018-11-01T00:31:38.633Z,0.00
2018-11-01T00:32:38.647Z,0.00
2018-11-01T00:33:38.674Z,0.00
2018-11-01T00:34:38.641Z,0.00
2018-11-01T00:35:38.671Z,0.00
2018-11-01T00:36:38.645Z,0.00
2018-11-01T00:37:38.652Z,0.00
2018-11-01T00:38:38.650Z,0.00
2018-11-01T00:39:38.635Z,0.00
2018-11-01T00:40:38.649Z,0.00
2018-11-01T00:41:38.644Z,0.00
2018-11-01T00:42:38.667Z,0.00
2018-11-01T00:43:38.662Z,0.00
2018-11-01T00:44:38.646Z,0.00
2018-11-01T00:45:38.636Z,0.00
2018-11-01T00:46:38.679Z,0.00
2018-11-01T00:47:38.695Z,0.00
2018-11-01T00:48:38.657Z,0.00
2018-11-01T00:49:38.670Z,0.00
2018-11-01T00:50:38.643Z,0.00
2018-11-01T00:51:38.648Z,0.00
2018-11-01T00:52:38.649Z,0.00
2018-11-01T00:53:38.659Z,0.00
2018-11-01T00:54:38.653Z,0.00
2018-11-01T00:55:38.641Z,0.00
2018-11-01T00:56:38.645Z,0.00
2018-11-01T00:57:38.663Z,0.00
2018-11-01T00:58:38.654Z,0.00
2018-11-01T00:59:38.649Z,0.00
2018-11-01T01:00:38.643Z,0.00
2018-11-01T01:01:38.641Z,0.00
2018-11-01T01:02:38.652Z,0.00
2018-11-01T01:03:38.663Z,0.00
2018-11-01T01:04:38.658Z,0.00
2018-11-01T01:05:38.660Z,0.00
2018-11-01T01:06:38.703Z,0.00
2018-11-01T01:07:38.644Z,0.00
2018-11-01T01:08:38.650Z,0.00
2018-11-01T01:09:38.657Z,0.00
2018-11-01T01:10:38.656Z,0.00
2018-11-01T01:11:38.681Z,0.00
2018-11-01T01:12:38.662Z,0.00
2018-11-01T01:13:38.651Z,0.00
2018-11-01T01:14:38.656Z,0.00
2018-11-01T01:15:38.649Z,0.00
2018-11-01T01:16:38.647Z,0.00
2018-11-01T01:17:38.669Z,0.00
2018-11-01T01:18:38.693Z,0.00
2018-11-01T01:19:38.656Z,0.00
2018-11-01T01:20:38.662Z,0.00
2018-11-01T01:21:38.654Z,0.00
2018-11-01T01:22:38.656Z,0.00
2018-11-01T01:23:38.648Z,0.00
2018-11-01T01:24:38.658Z,0.00
2018-11-01T01:25:38.675Z,0.00
2018-11-01T01:26:38.657Z,0.00
2018-11-01T01:27:38.658Z,0.00
2018-11-01T01:28:38.661Z,0.00
2018-11-01T01:29:38.684Z,0.00
2018-11-01T01:30:38.648Z,0.00
2018-11-01T01:31:38.688Z,0.00
2018-11-01T01:32:38.668Z,0.00
2018-11-01T01:33:38.656Z,0.00
2018-11-01T01:34:38.770Z,0.00
2018-11-01T01:35:38.667Z,0.00
2018-11-01T01:36:38.682Z,0.00
2018-11-01T01:37:38.650Z,0.00
2018-11-01T01:38:38.675Z,0.00
2018-11-01T01:39:38.658Z,0.00
2018-11-01T01:40:38.701Z,0.00
2018-11-01T01:41:38.662Z,0.00
2018-11-01T01:42:38.658Z,0.00
2018-11-01T01:43:38.658Z,0.00
2018-11-01T01:44:38.663Z,0.00
2018-11-01T01:45:38.661Z,0.00
2018-11-01T01:46:38.668Z,0.00
2018-11-01T01:47:38.655Z,0.00
2018-11-01T01:48:38.653Z,0.00
2018-11-01T01:49:38.661Z,0.00
2018-11-01T01:50:38.735Z,0.00
2018-11-01T01:51:38.676Z,0.00
2018-11-01T01:52:38.673Z,0.00
2018-11-01T01:53:38.668Z,0.00
2018-11-01T01:54:38.675Z,0.00
2018-11-01T01:55:38.660Z,0.00
2018-11-01T01:56:38.657Z,0.00
2018-11-01T01:57:40.613Z,0.00
2018-11-01T01:58:38.664Z,0.00
2018-11-01T01:59:38.662Z,0.00
2018-11-01T02:00:38.675Z,0.00
2018-11-01T02:01:38.670Z,0.00
2018-11-01T02:02:38.660Z,0.00
2018-11-01T02:03:38.667Z,0.00
2018-11-01T02:04:38.677Z,0.00
2018-11-01T02:05:38.675Z,0.00
2018-11-01T02:06:38.684Z,0.00
2018-11-01T02:07:38.687Z,0.00
2018-11-01T02:08:38.705Z,0.00
2018-11-01T02:09:38.670Z,0.00
2018-11-01T02:10:38.692Z,0.00
2018-11-01T02:11:38.687Z,0.00
2018-11-01T02:12:38.663Z,0.00
2018-11-01T02:13:38.670Z,0.00
2018-11-01T02:14:38.661Z,0.00
2018-11-01T02:15:38.675Z,0.00
2018-11-01T02:16:38.699Z,0.00
2018-11-01T02:17:38.681Z,0.00
2018-11-01T02:18:38.665Z,0.00
2018-11-01T02:19:38.672Z,0.00
2018-11-01T02:20:38.677Z,0.00
2018-11-01T02:21:38.669Z,0.00
2018-11-01T02:22:38.680Z,0.00
2018-11-01T02:23:38.673Z,0.00
2018-11-01T02:24:38.694Z,0.00
2018-11-01T02:25:38.692Z,0.00
2018-11-01T02:26:38.682Z,0.00
2018-11-01T02:27:38.660Z,0.00
2018-11-01T02:28:38.670Z,0.00
2018-11-01T02:29:38.671Z,0.00
2018-11-01T02:30:38.672Z,0.00
2018-11-01T02:31:38.674Z,0.00
2018-11-01T02:32:38.686Z,0.00
2018-11-01T02:33:38.670Z,0.00
2018-11-01T02:34:38.673Z,0.00
2018-11-01T02:35:38.694Z,0.00
2018-11-01T02:36:38.684Z,0.00
2018-11-01T02:37:38.750Z,0.00
2018-11-01T02:38:38.760Z,0.00
2018-11-01T02:39:38.679Z,0.00
2018-11-01T02:40:38.701Z,0.00
2018-11-01T02:41:38.675Z,0.00
2018-11-01T02:42:38.692Z,0.00
2018-11-01T02:43:38.677Z,0.00
2018-11-01T02:44:38.672Z,0.00
2018-11-01T02:45:38.682Z,0.00
2018-11-01T02:46:38.675Z,0.00
2018-11-01T02:47:38.673Z,0.00
2018-11-01T02:48:38.680Z,0.00
2018-11-01T02:49:38.680Z,0.00
2018-11-01T02:50:38.694Z,0.00
2018-11-01T02:51:38.674Z,0.00
2018-11-01T02:52:38.692Z,0.00
2018-11-01T02:53:38.680Z,0.00
2018-11-01T02:54:38.691Z,0.00
2018-11-01T02:55:38.689Z,0.00
2018-11-01T02:56:38.690Z,0.00
2018-11-01T02:57:38.692Z,0.00
2018-11-01T02:58:38.704Z,0.00
2018-11-01T02:59:38.797Z,0.00
2018-11-01T03:00:38.686Z,0.00
2018-11-01T03:01:38.708Z,0.00
2018-11-01T03:02:38.699Z,0.00
2018-11-01T03:03:38.683Z,0.00
2018-11-01T03:04:38.678Z,0.00
2018-11-01T03:05:38.683Z,0.00
2018-11-01T03:06:38.687Z,0.00
2018-11-01T03:07:38.700Z,0.00
2018-11-01T03:08:38.699Z,0.00
2018-11-01T03:09:38.700Z,0.00
2018-11-01T03:10:38.723Z,0.00
2018-11-01T03:11:38.703Z,0.00
2018-11-01T03:12:38.706Z,0.00
2018-11-01T03:13:38.692Z,0.00
2018-11-01T03:14:38.687Z,0.00
2018-11-01T03:15:38.680Z,0.00
2018-11-01T03:16:38.676Z,0.00
2018-11-01T03:17:38.688Z,0.00
2018-11-01T03:18:38.677Z,0.00
2018-11-01T03:19:38.688Z,0.00
2018-11-01T03:20:38.685Z,0.00
2018-11-01T03:21:38.743Z,0.00
2018-11-01T03:22:38.697Z,0.00
2018-11-01T03:23:38.704Z,0.00
2018-11-01T03:24:38.706Z,0.00
2018-11-01T03:25:38.691Z,0.00
2018-11-01T03:26:38.767Z,0.00
2018-11-01T03:27:38.702Z,0.00
2018-11-01T03:28:38.681Z,0.00
2018-11-01T03:29:38.690Z,0.00
2018-11-01T03:30:38.704Z,0.00
2018-11-01T03:31:38.698Z,0.00
2018-11-01T03:32:38.684Z,0.00
2018-11-01T03:33:38.676Z,0.00
2018-11-01T03:34:38.714Z,0.00
2018-11-01T03:35:38.761Z,0.00
2018-11-01T03:36:38.678Z,0.00
2018-11-01T03:37:38.687Z,0.00
2018-11-01T03:38:38.704Z,0.00
2018-11-01T03:39:38.702Z,0.00
2018-11-01T03:40:38.687Z,0.00
2018-11-01T03:41:38.691Z,0.00
2018-11-01T03:42:38.691Z,0.00
2018-11-01T03:43:38.717Z,0.00
2018-11-01T03:44:38.699Z,0.00
2018-11-01T03:45:38.767Z,0.00
2018-11-01T03:46:38.701Z,0.00
2018-11-01T03:47:38.696Z,0.00
2018-11-01T03:48:38.709Z,0.00
2018-11-01T03:49:38.683Z,0.00
2018-11-01T03:50:38.684Z,0.00
2018-11-01T03:51:38.750Z,0.00
2018-11-01T03:52:38.701Z,0.00
2018-11-01T03:53:38.750Z,0.00
2018-11-01T03:54:38.730Z,0.00
2018-11-01T03:55:38.705Z,0.00
2018-11-01T03:56:38.700Z,0.00
2018-11-01T03:57:38.692Z,0.00
2018-11-01T03:58:38.690Z,0.00
2018-11-01T03:59:38.689Z,0.00
2018-11-01T04:00:38.696Z,0.00
2018-11-01T04:01:38.731Z,0.00
2018-11-01T04:02:38.708Z,0.00
2018-11-01T04:03:38.740Z,0.00
2018-11-01T04:04:38.678Z,0.00
2018-11-01T04:05:38.686Z,0.00
2018-11-01T04:06:38.698Z,0.00
2018-11-01T04:07:38.685Z,0.00
2018-11-01T04:08:38.695Z,0.00
2018-11-01T04:09:38.684Z,0.00
2018-11-01T04:10:38.693Z,0.00
2018-11-01T04:11:38.687Z,0.00
2018-11-01T04:12:38.699Z,0.00
2018-11-01T04:13:38.770Z,0.00
2018-11-01T04:14:38.732Z,0.00
2018-11-01T04:15:38.694Z,0.00
2018-11-01T04:16:38.879Z,0.00
2018-11-01T04:17:38.705Z,0.00
2018-11-01T04:18:38.697Z,0.00
2018-11-01T04:19:38.689Z,0.00
2018-11-01T04:20:38.680Z,0.00
2018-11-01T04:21:38.698Z,0.00
2018-11-01T04:22:38.683Z,0.00
2018-11-01T04:23:38.687Z,0.00
2018-11-01T04:24:38.704Z,0.00
2018-11-01T04:25:38.768Z,0.00
2018-11-01T04:26:38.687Z,0.00
2018-11-01T04:27:38.725Z,0.00
2018-11-01T04:28:38.706Z,0.00
2018-11-01T04:29:38.677Z,0.00
2018-11-01T04:30:38.709Z,0.00
2018-11-01T04:31:38.707Z,0.00
2018-11-01T04:32:38.719Z,0.00
2018-11-01T04:33:38.879Z,0.00
2018-11-01T04:34:38.716Z,0.00
2018-11-01T04:35:40.726Z,0.00
2018-11-01T04:36:38.681Z,0.00
2018-11-01T04:37:38.695Z,0.00
2018-11-01T04:38:38.675Z,0.00
2018-11-01T04:39:38.691Z,0.00
2018-11-01T04:40:38.804Z,0.00
2018-11-01T04:41:38.681Z,0.00
2018-11-01T04:42:38.680Z,0.00
2018-11-01T04:43:38.682Z,0.00
2018-11-01T04:44:38.690Z,0.00
2018-11-01T04:45:38.682Z,0.00
2018-11-01T04:46:38.696Z,0.00
2018-11-01T04:47:38.761Z,0.00
2018-11-01T04:48:38.708Z,0.00
2018-11-01T04:49:38.699Z,0.00
2018-11-01T04:50:38.687Z,0.00
2018-11-01T04:51:38.687Z,0.00
2018-11-01T04:52:38.721Z,0.00
2018-11-01T04:53:38.676Z,0.00
2018-11-01T04:54:38.693Z,0.00
2018-11-01T04:55:38.678Z,0.00
2018-11-01T04:56:38.701Z,0.00
2018-11-01T04:57:38.678Z,0.00
2018-11-01T04:58:38.694Z,0.00
2018-11-01T04:59:38.686Z,0.00
2018-11-01T05:00:38.691Z,0.00
2018-11-01T05:01:38.709Z,0.00
2018-11-01T05:02:38.699Z,0.00
2018-11-01T05:03:38.704Z,0.00
2018-11-01T05:04:38.676Z,0.00
2018-11-01T05:05:38.694Z,0.00
2018-11-01T05:06:38.706Z,0.00
2018-11-01T05:07:38.682Z,0.00
2018-11-01T05:08:38.692Z,0.00
2018-11-01T05:09:38.704Z,0.00
2018-11-01T05:10:38.682Z,0.00
2018-11-01T05:11:38.704Z,0.00
2018-11-01T05:12:38.698Z,0.00
2018-11-01T05:13:38.700Z,0.00
2018-11-01T05:14:38.688Z,0.00
2018-11-01T05:15:38.671Z,0.00
2018-11-01T05:16:38.706Z,0.00
2018-11-01T05:17:38.691Z,0.00
2018-11-01T05:18:38.693Z,0.00
2018-11-01T05:19:38.674Z,0.00
2018-11-01T05:20:38.680Z,0.00
2018-11-01T05:21:38.708Z,0.00
2018-11-01T05:22:38.677Z,0.00
2018-11-01T05:23:38.688Z,0.00
2018-11-01T05:24:38.700Z,0.00
2018-11-01T05:25:38.744Z,0.00
2018-11-01T05:26:38.686Z,0.00
2018-11-01T05:27:38.690Z,0.00
2018-11-01T05:28:38.694Z,0.00
2018-11-01T05:29:38.729Z,0.00
2018-11-01T05:30:38.674Z,0.00
2018-11-01T05:31:38.673Z,0.00
2018-11-01T05:32:38.696Z,0.00
2018-11-01T05:33:38.676Z,0.00
2018-11-01T05:34:38.697Z,0.00
2018-11-01T05:35:38.690Z,0.00
2018-11-01T05:36:38.674Z,0.00
2018-11-01T05:37:38.678Z,0.00
2018-11-01T05:38:38.679Z,0.00
2018-11-01T05:39:38.672Z,0.00
2018-11-01T05:40:38.674Z,0.00
2018-11-01T05:41:38.701Z,0.00
2018-11-01T05:42:38.705Z,0.00
2018-11-01T05:43:38.686Z,0.00
2018-11-01T05:44:38.667Z,0.00
2018-11-01T05:45:38.721Z,0.00
2018-11-01T05:46:38.708Z,0.00
2018-11-01T05:47:38.680Z,0.00
2018-11-01T05:48:38.709Z,0.00
2018-11-01T05:49:38.678Z,0.00
2018-11-01T05:50:38.666Z,0.00
2018-11-01T05:51:38.664Z,0.00
2018-11-01T05:52:38.672Z,0.00
2018-11-01T05:53:38.682Z,4.00
2018-11-01T05:54:38.680Z,4.00
2018-11-01T05:55:38.681Z,4.00
2018-11-01T05:56:38.680Z,4.00
2018-11-01T05:57:38.684Z,4.00
2018-11-01T05:58:38.669Z,8.00
2018-11-01T05:59:38.679Z,4.00
2018-11-01T06:00:38.689Z,8.00
2018-11-01T06:01:38.698Z,8.00
2018-11-01T06:02:38.674Z,8.00
2018-11-01T06:03:38.682Z,12.00
2018-11-01T06:04:38.662Z,12.00
2018-11-01T06:05:38.701Z,16.00
2018-11-01T06:06:38.671Z,20.00
2018-11-01T06:07:38.676Z,24.00
2018-11-01T06:08:38.672Z,28.00
2018-11-01T06:09:38.687Z,32.00
2018-11-01T06:10:38.674Z,32.00
2018-11-01T06:11:38.671Z,40.00
2018-11-01T06:12:38.686Z,44.00
2018-11-01T06:13:38.662Z,48.00
2018-11-01T06:14:38.660Z,56.00
2018-11-01T06:15:38.668Z,60.00
2018-11-01T06:16:38.690Z,68.00
2018-11-01T06:17:38.681Z,76.00
2018-11-01T06:18:38.683Z,80.00
2018-11-01T06:19:38.689Z,92.00
2018-11-01T06:20:38.693Z,96.00
2018-11-01T06:21:38.689Z,104.00
2018-11-01T06:22:38.659Z,116.00
2018-11-01T06:23:38.661Z,124.00
2018-11-01T06:24:38.660Z,136.00
2018-11-01T06:25:38.673Z,148.00
2018-11-01T06:26:38.669Z,160.00
2018-11-01T06:27:38.669Z,168.00
2018-11-01T06:28:38.751Z,176.00
2018-11-01T06:29:38.718Z,188.00
2018-11-01T06:30:38.664Z,204.00
2018-11-01T06:31:38.653Z,212.00
2018-11-01T06:32:38.661Z,224.00
2018-11-01T06:33:38.679Z,236.00
2018-11-01T06:34:38.677Z,248.00
2018-11-01T06:35:38.688Z,260.00
2018-11-01T06:36:38.687Z,276.00
2018-11-01T06:37:38.654Z,288.00
2018-11-01T06:38:38.660Z,300.00
2018-11-01T06:39:38.656Z,316.00
2018-11-01T06:40:38.659Z,332.00
2018-11-01T06:41:38.661Z,344.00
2018-11-01T06:42:38.676Z,356.00
2018-11-01T06:43:38.655Z,376.00
2018-11-01T06:44:38.690Z,388.00
2018-11-01T06:45:38.656Z,408.00
2018-11-01T06:46:38.657Z,428.00
2018-11-01T06:47:38.672Z,444.00
2018-11-01T06:48:38.659Z,460.00
2018-11-01T06:49:38.671Z,472.00
2018-11-01T06:50:38.672Z,492.00
2018-11-01T06:51:38.656Z,504.00
2018-11-01T06:52:38.659Z,520.00
2018-11-01T06:53:38.655Z,540.00
2018-11-01T06:54:38.646Z,560.00
2018-11-01T06:55:38.654Z,580.00
2018-11-01T06:56:38.674Z,604.00
2018-11-01T06:57:38.655Z,632.00
2018-11-01T06:58:38.782Z,668.00
2018-11-01T06:59:38.659Z,708.00
2018-11-01T07:00:38.665Z,748.00
2018-11-01T07:01:38.664Z,776.00
2018-11-01T07:02:38.654Z,804.00
2018-11-01T07:03:38.657Z,824.00
2018-11-01T07:04:38.679Z,848.00
2018-11-01T07:05:38.772Z,868.00
2018-11-01T07:06:38.688Z,888.00
2018-11-01T07:07:38.643Z,904.00
2018-11-01T07:08:38.657Z,920.00
2018-11-01T07:09:38.670Z,940.00
2018-11-01T07:10:38.649Z,968.00
2018-11-01T07:11:38.789Z,988.00
2018-11-01T07:12:38.644Z,1020.00
2018-11-01T07:13:38.657Z,1060.00
2018-11-01T07:14:38.649Z,1100.00
2018-11-01T07:15:38.643Z,1152.00
2018-11-01T07:16:38.652Z,1200.00
2018-11-01T07:17:38.803Z,1244.00
2018-11-01T07:18:38.680Z,1284.00
2018-11-01T07:19:38.675Z,1320.00
2018-11-01T07:20:38.641Z,1360.00
2018-11-01T07:21:38.665Z,1396.00
2018-11-01T07:22:38.642Z,1440.00
2018-11-01T07:23:38.718Z,1484.00
2018-11-01T07:24:38.641Z,1528.00
2018-11-01T07:25:38.810Z,1576.00
2018-11-01T07:26:38.648Z,1636.00
2018-11-01T07:27:38.648Z,1696.00
2018-11-01T07:28:38.654Z,1768.00
2018-11-01T07:29:38.644Z,1844.00
2018-11-01T07:30:38.653Z,1912.00
2018-11-01T07:31:38.646Z,1988.00
2018-11-01T07:32:38.705Z,2056.00
2018-11-01T07:33:38.661Z,2128.00
2018-11-01T07:34:38.657Z,2192.00
2018-11-01T07:35:38.642Z,2280.00
2018-11-01T07:36:38.646Z,2364.00
2018-11-01T07:37:38.643Z,2448.00
2018-11-01T07:38:38.662Z,2512.00
2018-11-01T07:39:38.680Z,2592.00
2018-11-01T07:40:38.644Z,2680.00
2018-11-01T07:41:38.658Z,2776.00
2018-11-01T07:42:38.659Z,2856.00
2018-11-01T07:43:38.658Z,2880.00
2018-11-01T07:44:38.647Z,2904.00
2018-11-01T07:45:38.660Z,2916.00
2018-11-01T07:46:38.657Z,2960.00
2018-11-01T07:47:38.651Z,3020.00
2018-11-01T07:48:38.723Z,3068.00
2018-11-01T07:49:38.659Z,3116.00
2018-11-01T07:50:38.666Z,3172.00
2018-11-01T07:51:38.683Z,3216.00
2018-11-01T07:52:38.724Z,3228.00
2018-11-01T07:53:38.652Z,3248.00
2018-11-01T07:54:38.660Z,3272.00
2018-11-01T07:55:38.655Z,3404.00
2018-11-01T07:56:38.655Z,3604.00
2018-11-01T07:57:38.645Z,3852.00
2018-11-01T07:58:38.648Z,3976.00
2018-11-01T07:59:38.667Z,4036.00
2018-11-01T08:00:38.660Z,4008.00
2018-11-01T08:01:38.683Z,4052.00
2018-11-01T08:02:38.646Z,4000.00
2018-11-01T08:03:38.662Z,3916.00
2018-11-01T08:04:38.680Z,3892.00
2018-11-01T08:05:38.683Z,3796.00
2018-11-01T08:06:38.663Z,3760.00
2018-11-01T08:07:41.223Z,3764.00
2018-11-01T08:08:38.668Z,3828.00
2018-11-01T08:09:38.669Z,3828.00
2018-11-01T08:10:38.653Z,3868.00
2018-11-01T08:11:38.699Z,3916.00
2018-11-01T08:12:38.657Z,3988.00
2018-11-01T08:13:38.669Z,4020.00
2018-11-01T08:14:38.676Z,4048.00
2018-11-01T08:15:38.670Z,4068.00
2018-11-01T08:16:38.681Z,4068.00
2018-11-01T08:17:38.686Z,4056.00
2018-11-01T08:18:38.663Z,4060.00
2018-11-01T08:19:38.758Z,4080.00
2018-11-01T08:20:38.688Z,4132.00
2018-11-01T08:21:38.672Z,4164.00
2018-11-01T08:22:38.684Z,4220.00
2018-11-01T08:23:38.686Z,4336.00
2018-11-01T08:24:38.680Z,4472.00
2018-11-01T08:25:38.674Z,4576.00
2018-11-01T08:26:38.691Z,4688.00
2018-11-01T08:27:38.689Z,4784.00
2018-11-01T08:28:38.692Z,4952.00
2018-11-01T08:29:38.685Z,5068.00
2018-11-01T08:30:38.681Z,5160.00
2018-11-01T08:31:38.691Z,5224.00
2018-11-01T08:32:38.687Z,5360.00
2018-11-01T08:33:38.683Z,5500.00
2018-11-01T08:34:38.707Z,5636.00
2018-11-01T08:35:38.684Z,5576.00
2018-11-01T08:36:38.706Z,5592.00
2018-11-01T08:37:38.691Z,5644.00
2018-11-01T08:38:38.698Z,5636.00
2018-11-01T08:39:38.694Z,5676.00
2018-11-01T08:40:38.692Z,5648.00
2018-11-01T08:41:38.691Z,5596.00
2018-11-01T08:42:38.698Z,5600.00
2018-11-01T08:43:38.707Z,5492.00
2018-11-01T08:44:38.706Z,5408.00
2018-11-01T08:45:38.777Z,5372.00
2018-11-01T08:46:38.744Z,5356.00
2018-11-01T08:47:38.743Z,5340.00
2018-11-01T08:48:38.700Z,5296.00
2018-11-01T08:49:38.706Z,5292.00
2018-11-01T08:50:38.712Z,5280.00
2018-11-01T08:51:38.714Z,5208.00
2018-11-01T08:52:38.709Z,5168.00
2018-11-01T08:53:38.707Z,5160.00
2018-11-01T08:54:38.730Z,5004.00
2018-11-01T08:55:38.717Z,5164.00
2018-11-01T08:56:38.717Z,5228.00
2018-11-01T08:57:38.715Z,5276.00
2018-11-01T08:58:38.710Z,5276.00
2018-11-01T08:59:38.766Z,5336.00
2018-11-01T09:00:38.716Z,5292.00
2018-11-01T09:01:38.782Z,5272.00
2018-11-01T09:02:38.722Z,5200.00
2018-11-01T09:03:38.741Z,5128.00
2018-11-01T09:04:38.735Z,5100.00
2018-11-01T09:05:38.732Z,5036.00
2018-11-01T09:06:38.728Z,4932.00
2018-11-01T09:07:38.817Z,4864.00
2018-11-01T09:08:38.757Z,4808.00
2018-11-01T09:09:38.755Z,4788.00
2018-11-01T09:10:38.884Z,4752.00
2018-11-01T09:11:38.755Z,4696.00
2018-11-01T09:12:38.787Z,4604.00
2018-11-01T09:13:38.745Z,4484.00
2018-11-01T09:14:38.849Z,4332.00
2018-11-01T09:15:38.744Z,4172.00
2018-11-01T09:16:38.749Z,4028.00
2018-11-01T09:17:38.742Z,3908.00
2018-11-01T09:18:38.772Z,3812.00
2018-11-01T09:19:38.759Z,3728.00
2018-11-01T09:20:38.739Z,3684.00
2018-11-01T09:21:38.773Z,3660.00
2018-11-01T09:22:38.772Z,3640.00
2018-11-01T09:23:38.759Z,3624.00
2018-11-01T09:24:38.775Z,3592.00
2018-11-01T09:25:38.771Z,3548.00
2018-11-01T09:26:38.756Z,3492.00
2018-11-01T09:27:38.753Z,3448.00
2018-11-01T09:28:38.754Z,3404.00
2018-11-01T09:29:38.799Z,3364.00
2018-11-01T09:30:38.805Z,3320.00
2018-11-01T09:31:38.777Z,3284.00
2018-11-01T09:32:38.764Z,3240.00
2018-11-01T09:33:38.761Z,3220.00
2018-11-01T09:34:38.765Z,3212.00
2018-11-01T09:35:38.836Z,3224.00
2018-11-01T09:36:38.767Z,3260.00
2018-11-01T09:37:38.788Z,3308.00
2018-11-01T09:38:38.780Z,3372.00
2018-11-01T09:39:38.780Z,3436.00
2018-11-01T09:40:38.786Z,3492.00
2018-11-01T09:41:38.803Z,3540.00
2018-11-01T09:42:38.792Z,3568.00
2018-11-01T09:43:38.780Z,3588.00
2018-11-01T09:44:38.801Z,3588.00
2018-11-01T09:45:38.767Z,3588.00
2018-11-01T09:46:39.063Z,3576.00
2018-11-01T09:47:39.180Z,3580.00
2018-11-01T09:48:38.787Z,3584.00
2018-11-01T09:49:38.780Z,3596.00
2018-11-01T09:50:38.796Z,3616.00
2018-11-01T09:51:38.786Z,3644.00
2018-11-01T09:52:38.782Z,3660.00
2018-11-01T09:53:38.785Z,3676.00
2018-11-01T09:54:38.777Z,3692.00
2018-11-01T09:55:38.906Z,3708.00
2018-11-01T09:56:38.844Z,3720.00
2018-11-01T09:57:38.785Z,3736.00
2018-11-01T09:58:38.820Z,3748.00
2018-11-01T09:59:38.803Z,3768.00
2018-11-01T10:00:38.815Z,3800.00
2018-11-01T10:01:38.800Z,3836.00
2018-11-01T10:02:38.798Z,3872.00
2018-11-01T10:03:38.803Z,3892.00
2018-11-01T10:04:38.821Z,3892.00
2018-11-01T10:05:38.807Z,3888.00
2018-11-01T10:06:38.807Z,3852.00
2018-11-01T10:07:38.803Z,3816.00
2018-11-01T10:08:38.872Z,3772.00
2018-11-01T10:09:38.806Z,3736.00
2018-11-01T10:10:38.805Z,3704.00
2018-11-01T10:11:38.804Z,3700.00
2018-11-01T10:12:38.832Z,3700.00
2018-11-01T10:13:38.828Z,3708.00
2018-11-01T10:14:38.809Z,3708.00
2018-11-01T10:15:39.045Z,3708.00
2018-11-01T10:16:38.991Z,3704.00
2018-11-01T10:17:39.343Z,3700.00
2018-11-01T10:18:38.816Z,3704.00
2018-11-01T10:19:38.840Z,3712.00
2018-11-01T10:20:38.833Z,3728.00
2018-11-01T10:21:38.847Z,3752.00
2018-11-01T10:22:39.024Z,3788.00
2018-11-01T10:23:38.832Z,3816.00
2018-11-01T10:24:38.816Z,3828.00
2018-11-01T10:25:38.825Z,3808.00
2018-11-01T10:26:38.829Z,3772.00
2018-11-01T10:27:38.908Z,3716.00
2018-11-01T10:28:38.822Z,3648.00
2018-11-01T10:29:38.845Z,3564.00
2018-11-01T10:30:38.829Z,3468.00
2018-11-01T10:31:38.843Z,3388.00
2018-11-01T10:32:38.837Z,3312.00
2018-11-01T10:33:38.877Z,3236.00
2018-11-01T10:34:38.823Z,3168.00
2018-11-01T10:35:38.826Z,3116.00
2018-11-01T10:36:38.836Z,3080.00
2018-11-01T10:37:38.842Z,3072.00
2018-11-01T10:38:38.843Z,3060.00
2018-11-01T10:39:38.857Z,3056.00
2018-11-01T10:40:38.866Z,3060.00
2018-11-01T10:41:38.832Z,3064.00
2018-11-01T10:42:38.837Z,3072.00
2018-11-01T10:43:38.839Z,3072.00
2018-11-01T10:44:38.841Z,3068.00
2018-11-01T10:45:38.832Z,3052.00
2018-11-01T10:46:38.849Z,3024.00
2018-11-01T10:47:38.894Z,2980.00
2018-11-01T10:48:38.840Z,2940.00
2018-11-01T10:49:38.887Z,2920.00
2018-11-01T10:50:38.857Z,2916.00
2018-11-01T10:51:38.839Z,2936.00
2018-11-01T10:52:38.842Z,2960.00
2018-11-01T10:53:38.923Z,2992.00
2018-11-01T10:54:38.855Z,3028.00
2018-11-01T10:55:38.859Z,3076.00
2018-11-01T10:56:38.870Z,3120.00
2018-11-01T10:57:38.863Z,3148.00
2018-11-01T10:58:38.860Z,3160.00
2018-11-01T10:59:38.851Z,3156.00
2018-11-01T11:00:38.952Z,3144.00
2018-11-01T11:01:38.863Z,3128.00
2018-11-01T11:02:38.869Z,3120.00
2018-11-01T11:03:38.891Z,3120.00
2018-11-01T11:04:38.859Z,3144.00
2018-11-01T11:05:38.868Z,3184.00
2018-11-01T11:06:39.025Z,3248.00
2018-11-01T11:07:38.871Z,3324.00
2018-11-01T11:08:38.876Z,3424.00
2018-11-01T11:09:38.864Z,3504.00
2018-11-01T11:10:38.878Z,3576.00
2018-11-01T11:11:38.888Z,3612.00
2018-11-01T11:12:38.872Z,3640.00
2018-11-01T11:13:38.887Z,3636.00
2018-11-01T11:14:38.955Z,3604.00
2018-11-01T11:15:38.890Z,3568.00
2018-11-01T11:16:38.891Z,3524.00
2018-11-01T11:17:38.887Z,3484.00
2018-11-01T11:18:38.921Z,3448.00
2018-11-01T11:19:38.892Z,3416.00
2018-11-01T11:20:39.165Z,3384.00
2018-11-01T11:21:38.887Z,3340.00
2018-11-01T11:22:38.890Z,3288.00
2018-11-01T11:23:38.892Z,3236.00
2018-11-01T11:24:38.892Z,3180.00
2018-11-01T11:25:38.885Z,3120.00
2018-11-01T11:26:38.892Z,3072.00
2018-11-01T11:27:38.897Z,3024.00
2018-11-01T11:28:38.888Z,2984.00
2018-11-01T11:29:38.898Z,2964.00
2018-11-01T11:30:39.046Z,2956.00
2018-11-01T11:31:38.898Z,2956.00
2018-11-01T11:32:38.893Z,2936.00
2018-11-01T11:33:38.895Z,2892.00
2018-11-01T11:34:38.906Z,2828.00
2018-11-01T11:35:38.950Z,2756.00
2018-11-01T11:36:38.887Z,2704.00
2018-11-01T11:37:38.927Z,2648.00
2018-11-01T11:38:38.891Z,2564.00
2018-11-01T11:39:38.953Z,2476.00
2018-11-01T11:40:38.914Z,2424.00
2018-11-01T11:41:38.909Z,2404.00
2018-11-01T11:42:38.905Z,2428.00
2018-11-01T11:43:38.924Z,2460.00
2018-11-01T11:44:38.925Z,2512.00
2018-11-01T11:45:38.921Z,2548.00
2018-11-01T11:46:38.938Z,2592.00
2018-11-01T11:47:38.901Z,2628.00
2018-11-01T11:48:38.912Z,2672.00
2018-11-01T11:49:38.904Z,2716.00
2018-11-01T11:50:38.917Z,2716.00
2018-11-01T11:51:39.045Z,2724.00
2018-11-01T11:52:38.910Z,2704.00
2018-11-01T11:53:38.939Z,2684.00
2018-11-01T11:54:38.930Z,2668.00
2018-11-01T11:55:38.924Z,2648.00
2018-11-01T11:56:38.915Z,2640.00
2018-11-01T11:57:38.915Z,2616.00
2018-11-01T11:58:38.944Z,2556.00
2018-11-01T11:59:38.925Z,2468.00
2018-11-01T12:00:38.923Z,2380.00
2018-11-01T12:01:38.936Z,2324.00
2018-11-01T12:02:38.946Z,2308.00
2018-11-01T12:03:38.926Z,2344.00
2018-11-01T12:04:38.934Z,2428.00
2018-11-01T12:05:39.140Z,2532.00
2018-11-01T12:06:38.944Z,2604.00
2018-11-01T12:07:38.942Z,2608.00
2018-11-01T12:08:38.935Z,2556.00
2018-11-01T12:09:38.954Z,2484.00
2018-11-01T12:10:38.962Z,2416.00
2018-11-01T12:11:38.956Z,2364.00
2018-11-01T12:12:38.943Z,2348.00
2018-11-01T12:13:38.976Z,2356.00
2018-11-01T12:14:38.961Z,2368.00
2018-11-01T12:15:38.968Z,2360.00
2018-11-01T12:16:38.947Z,2328.00
2018-11-01T12:17:38.941Z,2264.00
2018-11-01T12:18:38.955Z,2192.00
2018-11-01T12:19:38.953Z,2112.00
2018-11-01T12:20:38.950Z,2052.00
2018-11-01T12:21:38.946Z,2000.00
2018-11-01T12:22:38.974Z,1960.00
2018-11-01T12:23:38.959Z,1928.00
2018-11-01T12:24:38.961Z,1908.00
2018-11-01T12:25:38.979Z,1884.00
2018-11-01T12:26:38.977Z,1860.00
2018-11-01T12:27:38.991Z,1824.00
2018-11-01T12:28:39.113Z,1788.00
2018-11-01T12:29:38.972Z,1732.00
2018-11-01T12:30:38.973Z,1656.00
2018-11-01T12:31:38.991Z,1568.00
2018-11-01T12:32:38.976Z,1504.00
2018-11-01T12:33:38.974Z,1480.00
2018-11-01T12:34:39.005Z,1496.00
2018-11-01T12:35:39.060Z,1516.00
2018-11-01T12:36:38.960Z,1540.00
2018-11-01T12:37:38.961Z,1544.00
2018-11-01T12:38:38.961Z,1536.00
2018-11-01T12:39:38.984Z,1512.00
2018-11-01T12:40:38.982Z,1476.00
2018-11-01T12:41:39.088Z,1460.00